Decoded Metar for K96D ( in ) (IATA:) | Meteo·Mobile Aviation Weather
aviador You're here:

K96D Decoded Metar

in
Report Time2018-11-19 00:55:00
UTC Time2018-11-19 01:04:46
Flight Rules vfr VFR
Wind020° at 10 kt
W.Rank020° ranks 22
Current wind is above 020° avg. (8.2)
Visibility9999 m
Phenomena:N/A
Clouds:N/A
CeilingNone
Temp-11°C
Dew Point-10°C (108% RH)
AAT-17.7°C
QNH1019 hPa
Raw Report
K96D 190055Z AUTO 02010KT 10SM M11/M10 A3009 RMK AO2=

Extra information for K96D:More info

Social comments